<?xml version="1.0" encoding="utf-8"?>
<gpx xmlns:xsi="http://www.w3.org/2001/XMLSchema-instance" xmlns:xsd="http://www.w3.org/2001/XMLSchema" version="1.1" creator="Shapelink.com" xmlns="http://www.topografix.com/GPX/1/1" xmlns:gpxtpx="http://www.garmin.com/xmlschemas/TrackPointExtension/v1">
  <metadata>
    <name>Skilanglauf 14.83 km, 2018-02-19</name>
    <desc></desc>
    <author><name>Henrik Staffas</name></author> 
    <time>2018-02-19T19:41:28Z</time>
  </metadata>
  <trk>
    <name>Skilanglauf 14.83 km, 2018-02-19</name>
    <trkseg>
      <trkpt lat="59.484205574396" lon="17.876184412492">
        <ele>12.4</ele>
        <time>2018-02-19T19:41:28Z</time>
      </trkpt>
      <trkpt lat="59.483756639832" lon="17.876319277263">
        <ele>13.2</ele>
        <time>2018-02-19T19:41:45Z</time>
      </trkpt>
      <trkpt lat="59.483469811214" lon="17.876538547767">
        <ele>13.6</ele>
        <time>2018-02-19T19:41:54Z</time>
      </trkpt>
      <trkpt lat="59.483054320431" lon="17.876912045231">
        <ele>14</ele>
        <time>2018-02-19T19:42:08Z</time>
      </trkpt>
      <trkpt lat="59.482731449643" lon="17.87721723021">
        <ele>14.6</ele>
        <time>2018-02-19T19:42:19Z</time>
      </trkpt>
      <trkpt lat="59.482303805105" lon="17.877571952218">
        <ele>14.8</ele>
        <time>2018-02-19T19:42:33Z</time>
      </trkpt>
      <trkpt lat="59.482058718349" lon="17.877646551128">
        <ele>15.2</ele>
        <time>2018-02-19T19:42:41Z</time>
      </trkpt>
      <trkpt lat="59.48187339454" lon="17.877729029024">
        <ele>15.6</ele>
        <time>2018-02-19T19:42:47Z</time>
      </trkpt>
      <trkpt lat="59.481431836048" lon="17.877882836889">
        <ele>16</ele>
        <time>2018-02-19T19:43:00Z</time>
      </trkpt>
      <trkpt lat="59.480979884" lon="17.877771609076">
        <ele>15.6</ele>
        <time>2018-02-19T19:43:13Z</time>
      </trkpt>
      <trkpt lat="59.48064376981" lon="17.877617717392">
        <ele>16.6</ele>
        <time>2018-02-19T19:43:24Z</time>
      </trkpt>
      <trkpt lat="59.480421733279" lon="17.877438344732">
        <ele>17</ele>
        <time>2018-02-19T19:43:32Z</time>
      </trkpt>
      <trkpt lat="59.480303967584" lon="17.87701941737">
        <ele>17.6</ele>
        <time>2018-02-19T19:43:40Z</time>
      </trkpt>
      <trkpt lat="59.48008218251" lon="17.876241828507">
        <ele>17.8</ele>
        <time>2018-02-19T19:43:55Z</time>
      </trkpt>
      <trkpt lat="59.47991705908" lon="17.875967153644">
        <ele>18.8</ele>
        <time>2018-02-19T19:44:05Z</time>
      </trkpt>
      <trkpt lat="59.479470806724" lon="17.875711924789">
        <ele>19.6</ele>
        <time>2018-02-19T19:44:24Z</time>
      </trkpt>
      <trkpt lat="59.479470806724" lon="17.875711924789">
        <ele>19.6</ele>
        <time>2018-02-19T19:44:25Z</time>
      </trkpt>
      <trkpt lat="59.479405344085" lon="17.875564235711">
        <ele>19.8</ele>
        <time>2018-02-19T19:44:29Z</time>
      </trkpt>
      <trkpt lat="59.479129831032" lon="17.875205993305">
        <ele>21.2</ele>
        <time>2018-02-19T19:44:41Z</time>
      </trkpt>
      <trkpt lat="59.478893796728" lon="17.875068362507">
        <ele>22.2</ele>
        <time>2018-02-19T19:44:51Z</time>
      </trkpt>
      <trkpt lat="59.478457267376" lon="17.874919416144">
        <ele>21.8</ele>
        <time>2018-02-19T19:45:04Z</time>
      </trkpt>
      <trkpt lat="59.477993664487" lon="17.874973982313">
        <ele>23.2</ele>
        <time>2018-02-19T19:45:21Z</time>
      </trkpt>
      <trkpt lat="59.477914204075" lon="17.874983286222">
        <ele>23.4</ele>
        <time>2018-02-19T19:45:24Z</time>
      </trkpt>
      <trkpt lat="59.477788559394" lon="17.874971803019">
        <ele>23.6</ele>
        <time>2018-02-19T19:45:28Z</time>
      </trkpt>
      <trkpt lat="59.47748630808" lon="17.874966438603">
        <ele>24.6</ele>
        <time>2018-02-19T19:45:39Z</time>
      </trkpt>
      <trkpt lat="59.477039301353" lon="17.87478480283">
        <ele>25</ele>
        <time>2018-02-19T19:45:55Z</time>
      </trkpt>
      <trkpt lat="59.476608052598" lon="17.874643735453">
        <ele>24.6</ele>
        <time>2018-02-19T19:46:10Z</time>
      </trkpt>
      <trkpt lat="59.476150400858" lon="17.874656224484">
        <ele>25.4</ele>
        <time>2018-02-19T19:46:24Z</time>
      </trkpt>
      <trkpt lat="59.47606892879" lon="17.874634850639">
        <ele>25.8</ele>
        <time>2018-02-19T19:46:27Z</time>
      </trkpt>
      <trkpt lat="59.475762067431" lon="17.87460543017">
        <ele>26.4</ele>
        <time>2018-02-19T19:46:38Z</time>
      </trkpt>
      <trkpt lat="59.475740945043" lon="17.87544781112">
        <ele>26</ele>
        <time>2018-02-19T19:46:53Z</time>
      </trkpt>
      <trkpt lat="59.475785788208" lon="17.875880233341">
        <ele>25.2</ele>
        <time>2018-02-19T19:46:59Z</time>
      </trkpt>
      <trkpt lat="59.475800959447" lon="17.876040998183">
        <ele>24.8</ele>
        <time>2018-02-19T19:47:01Z</time>
      </trkpt>
      <trkpt lat="59.475809173709" lon="17.876124481907">
        <ele>24.6</ele>
        <time>2018-02-19T19:47:02Z</time>
      </trkpt>
      <trkpt lat="59.475813699935" lon="17.876223723603">
        <ele>24.4</ele>
        <time>2018-02-19T19:47:03Z</time>
      </trkpt>
      <trkpt lat="59.4758417793" lon="17.877046407088">
        <ele>24.6</ele>
        <time>2018-02-19T19:47:16Z</time>
      </trkpt>
      <trkpt lat="59.47624075774" lon="17.876576601593">
        <ele>24.4</ele>
        <time>2018-02-19T19:47:31Z</time>
      </trkpt>
      <trkpt lat="59.476484419573" lon="17.876227579277">
        <ele>23.6</ele>
        <time>2018-02-19T19:47:39Z</time>
      </trkpt>
      <trkpt lat="59.476636802515" lon="17.875550657033">
        <ele>23.8</ele>
        <time>2018-02-19T19:47:50Z</time>
      </trkpt>
      <trkpt lat="59.47705128747" lon="17.875220326354">
        <ele>23.6</ele>
        <time>2018-02-19T19:48:04Z</time>
      </trkpt>
      <trkpt lat="59.477528133761" lon="17.87501865784">
        <ele>23.8</ele>
        <time>2018-02-19T19:48:20Z</time>
      </trkpt>
      <trkpt lat="59.477754780337" lon="17.87492813332">
        <ele>23.8</ele>
        <time>2018-02-19T19:48:26Z</time>
      </trkpt>
      <trkpt lat="59.477974637574" lon="17.874897707023">
        <ele>22.4</ele>
        <time>2018-02-19T19:48:32Z</time>
      </trkpt>
      <trkpt lat="59.478477970669" lon="17.874982364213">
        <ele>22</ele>
        <time>2018-02-19T19:48:44Z</time>
      </trkpt>
      <trkpt lat="59.478565142429" lon="17.875032990889">
        <ele>21.2</ele>
        <time>2018-02-19T19:48:47Z</time>
      </trkpt>
      <trkpt lat="59.479027068938" lon="17.87533884642">
        <ele>20.2</ele>
        <time>2018-02-19T19:48:58Z</time>
      </trkpt>
      <trkpt lat="59.479071576827" lon="17.875372206382">
        <ele>20.2</ele>
        <time>2018-02-19T19:48:59Z</time>
      </trkpt>
      <trkpt lat="59.479197305327" lon="17.875489972077">
        <ele>20.2</ele>
        <time>2018-02-19T19:49:02Z</time>
      </trkpt>
      <trkpt lat="59.479271736599" lon="17.875608073048">
        <ele>20</ele>
        <time>2018-02-19T19:49:03Z</time>
      </trkpt>
      <trkpt lat="59.479597541052" lon="17.876259262859">
        <ele>19.6</ele>
        <time>2018-02-19T19:49:14Z</time>
      </trkpt>
      <trkpt lat="59.479624949865" lon="17.876567800598">
        <ele>19</ele>
        <time>2018-02-19T19:49:18Z</time>
      </trkpt>
      <trkpt lat="59.479768950907" lon="17.877458964206">
        <ele>18.4</ele>
        <time>2018-02-19T19:49:31Z</time>
      </trkpt>
      <trkpt lat="59.479820499592" lon="17.877629032957">
        <ele>18.4</ele>
        <time>2018-02-19T19:49:33Z</time>
      </trkpt>
      <trkpt lat="59.479827121293" lon="17.877915945394">
        <ele>18.4</ele>
        <time>2018-02-19T19:49:36Z</time>
      </trkpt>
      <trkpt lat="59.479804909258" lon="17.878164552548">
        <ele>17.8</ele>
        <time>2018-02-19T19:49:39Z</time>
      </trkpt>
      <trkpt lat="59.479790995304" lon="17.878348116158">
        <ele>17.4</ele>
        <time>2018-02-19T19:49:41Z</time>
      </trkpt>
      <trkpt lat="59.479774147685" lon="17.878731420445">
        <ele>16.8</ele>
        <time>2018-02-19T19:49:45Z</time>
      </trkpt>
      <trkpt lat="59.479737854058" lon="17.878904339042">
        <ele>16.8</ele>
        <time>2018-02-19T19:49:47Z</time>
      </trkpt>
      <trkpt lat="59.479556385923" lon="17.879274316108">
        <ele>16.2</ele>
        <time>2018-02-19T19:49:55Z</time>
      </trkpt>
      <trkpt lat="59.479615981232" lon="17.879210781306">
        <ele>16.2</ele>
        <time>2018-02-19T19:49:59Z</time>
      </trkpt>
      <trkpt lat="59.47982401999" lon="17.878372758944">
        <ele>16.4</ele>
        <time>2018-02-19T19:50:14Z</time>
      </trkpt>
      <trkpt lat="59.479896523425" lon="17.878039997514">
        <ele>16.8</ele>
        <time>2018-02-19T19:50:20Z</time>
      </trkpt>
      <trkpt lat="59.47996986505" lon="17.877727268825">
        <ele>17.8</ele>
        <time>2018-02-19T19:50:26Z</time>
      </trkpt>
      <trkpt lat="59.479950921956" lon="17.877468854848">
        <ele>18</ele>
        <time>2018-02-19T19:50:32Z</time>
      </trkpt>
      <trkpt lat="59.479717066946" lon="17.8770085209">
        <ele>18.8</ele>
        <time>2018-02-19T19:50:42Z</time>
      </trkpt>
      <trkpt lat="59.479465609946" lon="17.876229171838">
        <ele>19.2</ele>
        <time>2018-02-19T19:50:56Z</time>
      </trkpt>
      <trkpt lat="59.479217421887" lon="17.875703039975">
        <ele>20</ele>
        <time>2018-02-19T19:51:08Z</time>
      </trkpt>
      <trkpt lat="59.478791789005" lon="17.875404728154">
        <ele>20.8</ele>
        <time>2018-02-19T19:51:26Z</time>
      </trkpt>
      <trkpt lat="59.47874359308" lon="17.875384863051">
        <ele>20.6</ele>
        <time>2018-02-19T19:51:28Z</time>
      </trkpt>
      <trkpt lat="59.478599592038" lon="17.875325854475">
        <ele>21.2</ele>
        <time>2018-02-19T19:51:35Z</time>
      </trkpt>
      <trkpt lat="59.478145041601" lon="17.875253853954">
        <ele>22.2</ele>
        <time>2018-02-19T19:51:50Z</time>
      </trkpt>
      <trkpt lat="59.478121488462" lon="17.875259805103">
        <ele>22.4</ele>
        <time>2018-02-19T19:51:51Z</time>
      </trkpt>
      <trkpt lat="59.477666351292" lon="17.875269444288">
        <ele>23.2</ele>
        <time>2018-02-19T19:52:05Z</time>
      </trkpt>
      <trkpt lat="59.477571719641" lon="17.875278915835">
        <ele>23.4</ele>
        <time>2018-02-19T19:52:08Z</time>
      </trkpt>
      <trkpt lat="59.477104512535" lon="17.875434232442">
        <ele>23.2</ele>
        <time>2018-02-19T19:52:23Z</time>
      </trkpt>
      <trkpt lat="59.476690614313" lon="17.875860116781">
        <ele>23</ele>
        <time>2018-02-19T19:52:38Z</time>
      </trkpt>
      <trkpt lat="59.476391967216" lon="17.876540391785">
        <ele>23.4</ele>
        <time>2018-02-19T19:52:53Z</time>
      </trkpt>
      <trkpt lat="59.475993072595" lon="17.877013214764">
        <ele>23.8</ele>
        <time>2018-02-19T19:53:07Z</time>
      </trkpt>
      <trkpt lat="59.475840522015" lon="17.877052274418">
        <ele>23.8</ele>
        <time>2018-02-19T19:53:12Z</time>
      </trkpt>
      <trkpt lat="59.475770030236" lon="17.876532764256">
        <ele>23.6</ele>
        <time>2018-02-19T19:53:21Z</time>
      </trkpt>
      <trkpt lat="59.475742705242" lon="17.875801694938">
        <ele>24.4</ele>
        <time>2018-02-19T19:53:34Z</time>
      </trkpt>
      <trkpt lat="59.475521255444" lon="17.874957972884">
        <ele>25.2</ele>
        <time>2018-02-19T19:53:49Z</time>
      </trkpt>
      <trkpt lat="59.475536175226" lon="17.874672401551">
        <ele>25.6</ele>
        <time>2018-02-19T19:53:54Z</time>
      </trkpt>
      <trkpt lat="59.475845634974" lon="17.874465871535">
        <ele>24.4</ele>
        <time>2018-02-19T19:54:06Z</time>
      </trkpt>
      <trkpt lat="59.476157190197" lon="17.874539296979">
        <ele>24.6</ele>
        <time>2018-02-19T19:54:12Z</time>
      </trkpt>
      <trkpt lat="59.476388111542" lon="17.874516079116">
        <ele>24.6</ele>
        <time>2018-02-19T19:54:17Z</time>
      </trkpt>
      <trkpt lat="59.476848613128" lon="17.874556396055">
        <ele>23.8</ele>
        <time>2018-02-19T19:54:30Z</time>
      </trkpt>
      <trkpt lat="59.477301654823" lon="17.874642729625">
        <ele>23.8</ele>
        <time>2018-02-19T19:54:43Z</time>
      </trkpt>
      <trkpt lat="59.477365860177" lon="17.874656643579">
        <ele>23.2</ele>
        <time>2018-02-19T19:54:45Z</time>
      </trkpt>
      <trkpt lat="59.477811777257" lon="17.874687824247">
        <ele>23</ele>
        <time>2018-02-19T19:54:58Z</time>
      </trkpt>
      <trkpt lat="59.478034651978" lon="17.874757226379">
        <ele>22</ele>
        <time>2018-02-19T19:55:04Z</time>
      </trkpt>
      <trkpt lat="59.478457351195" lon="17.874740043484">
        <ele>21.6</ele>
        <time>2018-02-19T19:55:15Z</time>
      </trkpt>
      <trkpt lat="59.478897568583" lon="17.874887648743">
        <ele>21.2</ele>
        <time>2018-02-19T19:55:28Z</time>
      </trkpt>
      <trkpt lat="59.479161179338" lon="17.875087808515">
        <ele>20.6</ele>
        <time>2018-02-19T19:55:33Z</time>
      </trkpt>
      <trkpt lat="59.479244243967" lon="17.875188139858">
        <ele>19.2</ele>
        <time>2018-02-19T19:55:35Z</time>
      </trkpt>
      <trkpt lat="59.479280286137" lon="17.875242286932">
        <ele>18.6</ele>
        <time>2018-02-19T19:55:36Z</time>
      </trkpt>
      <trkpt lat="59.479313897556" lon="17.875301546965">
        <ele>18.2</ele>
        <time>2018-02-19T19:55:37Z</time>
      </trkpt>
      <trkpt lat="59.479340551998" lon="17.875369188898">
        <ele>18</ele>
        <time>2018-02-19T19:55:38Z</time>
      </trkpt>
      <trkpt lat="59.479726454674" lon="17.875807981363">
        <ele>18</ele>
        <time>2018-02-19T19:55:49Z</time>
      </trkpt>
      <trkpt lat="59.479940276943" lon="17.875930943836">
        <ele>17.8</ele>
        <time>2018-02-19T19:55:54Z</time>
      </trkpt>
      <trkpt lat="59.480137083955" lon="17.876244426896">
        <ele>17.2</ele>
        <time>2018-02-19T19:56:01Z</time>
      </trkpt>
      <trkpt lat="59.480364736359" lon="17.877002150656">
        <ele>16.2</ele>
        <time>2018-02-19T19:56:13Z</time>
      </trkpt>
      <trkpt lat="59.480420308356" lon="17.877266934877">
        <ele>16</ele>
        <time>2018-02-19T19:56:17Z</time>
      </trkpt>
      <trkpt lat="59.480538493146" lon="17.877525851768">
        <ele>15</ele>
        <time>2018-02-19T19:56:22Z</time>
      </trkpt>
      <trkpt lat="59.480807971231" lon="17.87764805987">
        <ele>16.2</ele>
        <time>2018-02-19T19:56:30Z</time>
      </trkpt>
      <trkpt lat="59.480807971231" lon="17.87764805987">
        <ele>15</ele>
        <time>2018-02-19T19:56:31Z</time>
      </trkpt>
      <trkpt lat="59.48127492688" lon="17.877870683134">
        <ele>14</ele>
        <time>2018-02-19T19:56:41Z</time>
      </trkpt>
      <trkpt lat="59.481597546211" lon="17.877828438358">
        <ele>14.2</ele>
        <time>2018-02-19T19:56:49Z</time>
      </trkpt>
      <trkpt lat="59.481927793071" lon="17.877717042907">
        <ele>14</ele>
        <time>2018-02-19T19:56:58Z</time>
      </trkpt>
      <trkpt lat="59.482385193354" lon="17.87749215653">
        <ele>14</ele>
        <time>2018-02-19T19:57:13Z</time>
      </trkpt>
      <trkpt lat="59.482626005341" lon="17.877269700904">
        <ele>13</ele>
        <time>2018-02-19T19:57:21Z</time>
      </trkpt>
      <trkpt lat="59.483044848884" lon="17.87687189593">
        <ele>12</ele>
        <time>2018-02-19T19:57:35Z</time>
      </trkpt>
      <trkpt lat="59.483156998706" lon="17.876800146866">
        <ele>12</ele>
        <time>2018-02-19T19:57:38Z</time>
      </trkpt>
      <trkpt lat="59.483611716781" lon="17.876448777618">
        <ele>11.2</ele>
        <time>2018-02-19T19:57:51Z</time>
      </trkpt>
      <trkpt lat="59.484044893373" lon="17.876248198751">
        <ele>10.8</ele>
        <time>2018-02-19T19:58:04Z</time>
      </trkpt>
      <trkpt lat="59.484236335969" lon="17.876302932558">
        <ele>10.2</ele>
        <time>2018-02-19T19:58:11Z</time>
      </trkpt>
      <trkpt lat="59.484287800835" lon="17.876258843764">
        <ele>10.4</ele>
        <time>2018-02-19T19:58:40Z</time>
      </trkpt>
      <trkpt lat="59.484253267407" lon="17.876259011402">
        <ele>10.6</ele>
        <time>2018-02-19T19:58:43Z</time>
      </trkpt>
      <trkpt lat="59.484164754543" lon="17.876254233719">
        <ele>10.8</ele>
        <time>2018-02-19T19:58:47Z</time>
      </trkpt>
      <trkpt lat="59.483703498586" lon="17.876354816519">
        <ele>11.2</ele>
        <time>2018-02-19T19:59:03Z</time>
      </trkpt>
      <trkpt lat="59.483564191408" lon="17.876492279679">
        <ele>11.8</ele>
        <time>2018-02-19T19:59:08Z</time>
      </trkpt>
      <trkpt lat="59.483135876318" lon="17.876802996712">
        <ele>12.4</ele>
        <time>2018-02-19T19:59:22Z</time>
      </trkpt>
      <trkpt lat="59.482896908349" lon="17.87693727475">
        <ele>12.8</ele>
        <time>2018-02-19T19:59:31Z</time>
      </trkpt>
      <trkpt lat="59.482476388426" lon="17.87731697482">
        <ele>12.6</ele>
        <time>2018-02-19T19:59:47Z</time>
      </trkpt>
      <trkpt lat="59.48202426874" lon="17.877613861718">
        <ele>12.8</ele>
        <time>2018-02-19T20:00:02Z</time>
      </trkpt>
      <trkpt lat="59.481847578288" lon="17.877703799505">
        <ele>13.8</ele>
        <time>2018-02-19T20:00:07Z</time>
      </trkpt>
      <trkpt lat="59.481400571561" lon="17.877879903224">
        <ele>13.2</ele>
        <time>2018-02-19T20:00:21Z</time>
      </trkpt>
      <trkpt lat="59.480930011695" lon="17.877725257169">
        <ele>13</ele>
        <time>2018-02-19T20:00:35Z</time>
      </trkpt>
      <trkpt lat="59.480480825674" lon="17.877492743263">
        <ele>14.6</ele>
        <time>2018-02-19T20:00:52Z</time>
      </trkpt>
      <trkpt lat="59.480405891488" lon="17.877163250774">
        <ele>15</ele>
        <time>2018-02-19T20:00:58Z</time>
      </trkpt>
      <trkpt lat="59.480220064765" lon="17.876332604484">
        <ele>15.6</ele>
        <time>2018-02-19T20:01:15Z</time>
      </trkpt>
      <trkpt lat="59.479817901203" lon="17.875901774824">
        <ele>15.8</ele>
        <time>2018-02-19T20:01:29Z</time>
      </trkpt>
      <trkpt lat="59.479778841549" lon="17.875891632725">
        <ele>16</ele>
        <time>2018-02-19T20:01:31Z</time>
      </trkpt>
      <trkpt lat="59.479491510017" lon="17.875650317824">
        <ele>17</ele>
        <time>2018-02-19T20:01:43Z</time>
      </trkpt>
      <trkpt lat="59.47912999867" lon="17.875186044383">
        <ele>18.2</ele>
        <time>2018-02-19T20:02:02Z</time>
      </trkpt>
      <trkpt lat="59.479011059509" lon="17.875113289491">
        <ele>19.2</ele>
        <time>2018-02-19T20:02:08Z</time>
      </trkpt>
      <trkpt lat="59.478557431081" lon="17.874925199655">
        <ele>19.2</ele>
        <time>2018-02-19T20:02:22Z</time>
      </trkpt>
      <trkpt lat="59.478229950248" lon="17.874953781934">
        <ele>19.8</ele>
        <time>2018-02-19T20:02:34Z</time>
      </trkpt>
      <trkpt lat="59.478071951433" lon="17.874921092524">
        <ele>20.4</ele>
        <time>2018-02-19T20:02:41Z</time>
      </trkpt>
      <trkpt lat="59.477597871169" lon="17.874908603493">
        <ele>21.2</ele>
        <time>2018-02-19T20:02:55Z</time>
      </trkpt>
      <trkpt lat="59.477325124143" lon="17.874889073666">
        <ele>21.4</ele>
        <time>2018-02-19T20:03:05Z</time>
      </trkpt>
      <trkpt lat="59.476859090503" lon="17.874664774022">
        <ele>22.2</ele>
        <time>2018-02-19T20:03:21Z</time>
      </trkpt>
      <trkpt lat="59.476401857858" lon="17.874628564214">
        <ele>22.2</ele>
        <time>2018-02-19T20:03:35Z</time>
      </trkpt>
      <trkpt lat="59.476258946463" lon="17.874634515363">
        <ele>22.4</ele>
        <time>2018-02-19T20:03:40Z</time>
      </trkpt>
      <trkpt lat="59.475800456533" lon="17.874583469592">
        <ele>23.4</ele>
        <time>2018-02-19T20:03:57Z</time>
      </trkpt>
      <trkpt lat="59.475710518746" lon="17.875280592215">
        <ele>22.2</ele>
        <time>2018-02-19T20:04:10Z</time>
      </trkpt>
      <trkpt lat="59.475830547554" lon="17.876019205243">
        <ele>22.4</ele>
        <time>2018-02-19T20:04:20Z</time>
      </trkpt>
      <trkpt lat="59.475835409056" lon="17.876193297306">
        <ele>22</ele>
        <time>2018-02-19T20:04:22Z</time>
      </trkpt>
      <trkpt lat="59.47580992808" lon="17.876699396428">
        <ele>22</ele>
        <time>2018-02-19T20:04:28Z</time>
      </trkpt>
      <trkpt lat="59.475802635827" lon="17.87692554009">
        <ele>21.4</ele>
        <time>2018-02-19T20:04:31Z</time>
      </trkpt>
      <trkpt lat="59.475997850278" lon="17.877034756247">
        <ele>20.8</ele>
        <time>2018-02-19T20:04:40Z</time>
      </trkpt>
      <trkpt lat="59.476267076906" lon="17.8766732449">
        <ele>21.2</ele>
        <time>2018-02-19T20:04:49Z</time>
      </trkpt>
      <trkpt lat="59.47659866487" lon="17.875682839596">
        <ele>20.4</ele>
        <time>2018-02-19T20:05:09Z</time>
      </trkpt>
      <trkpt lat="59.477036367688" lon="17.875356867505">
        <ele>20.6</ele>
        <time>2018-02-19T20:05:22Z</time>
      </trkpt>
      <trkpt lat="59.477485553709" lon="17.875248824814">
        <ele>21.4</ele>
        <time>2018-02-19T20:05:36Z</time>
      </trkpt>
      <trkpt lat="59.477933985359" lon="17.875186882573">
        <ele>20.8</ele>
        <time>2018-02-19T20:05:49Z</time>
      </trkpt>
      <trkpt lat="59.47817697664" lon="17.875172717162">
        <ele>20.4</ele>
        <time>2018-02-19T20:05:55Z</time>
      </trkpt>
      <trkpt lat="59.47833204179" lon="17.875143883426">
        <ele>19.2</ele>
        <time>2018-02-19T20:05:59Z</time>
      </trkpt>
      <trkpt lat="59.478462715611" lon="17.875156204819">
        <ele>18.8</ele>
        <time>2018-02-19T20:06:02Z</time>
      </trkpt>
      <trkpt lat="59.478967054534" lon="17.875431298777">
        <ele>18.2</ele>
        <time>2018-02-19T20:06:15Z</time>
      </trkpt>
      <trkpt lat="59.479087753894" lon="17.875503215479">
        <ele>18</ele>
        <time>2018-02-19T20:06:18Z</time>
      </trkpt>
      <trkpt lat="59.479208369435" lon="17.875614191835">
        <ele>17.8</ele>
        <time>2018-02-19T20:06:21Z</time>
      </trkpt>
      <trkpt lat="59.47943007069" lon="17.875870175061">
        <ele>17.2</ele>
        <time>2018-02-19T20:06:27Z</time>
      </trkpt>
      <trkpt lat="59.479701895707" lon="17.876615745066">
        <ele>16.8</ele>
        <time>2018-02-19T20:06:40Z</time>
      </trkpt>
      <trkpt lat="59.479782278128" lon="17.876933502895">
        <ele>16</ele>
        <time>2018-02-19T20:06:45Z</time>
      </trkpt>
      <trkpt lat="59.47989610433" lon="17.877672115923">
        <ele>16.2</ele>
        <time>2018-02-19T20:06:55Z</time>
      </trkpt>
      <trkpt lat="59.479894176493" lon="17.877847297633">
        <ele>16</ele>
        <time>2018-02-19T20:06:57Z</time>
      </trkpt>
      <trkpt lat="59.479868611698" lon="17.878011666692">
        <ele>15.6</ele>
        <time>2018-02-19T20:06:59Z</time>
      </trkpt>
      <trkpt lat="59.479822846524" lon="17.878276283275">
        <ele>15</ele>
        <time>2018-02-19T20:07:02Z</time>
      </trkpt>
      <trkpt lat="59.479806082724" lon="17.878449453329">
        <ele>14.8</ele>
        <time>2018-02-19T20:07:04Z</time>
      </trkpt>
      <trkpt lat="59.479800215394" lon="17.878808785382">
        <ele>14.8</ele>
        <time>2018-02-19T20:07:08Z</time>
      </trkpt>
      <trkpt lat="59.479687730296" lon="17.879034509949">
        <ele>14</ele>
        <time>2018-02-19T20:07:12Z</time>
      </trkpt>
      <trkpt lat="59.479557559389" lon="17.879235507911">
        <ele>13.6</ele>
        <time>2018-02-19T20:07:17Z</time>
      </trkpt>
      <trkpt lat="59.479595445577" lon="17.87922385707">
        <ele>14</ele>
        <time>2018-02-19T20:07:21Z</time>
      </trkpt>
      <trkpt lat="59.479775656427" lon="17.878815993816">
        <ele>13.8</ele>
        <time>2018-02-19T20:07:30Z</time>
      </trkpt>
      <trkpt lat="59.479789570381" lon="17.878705185098">
        <ele>13.4</ele>
        <time>2018-02-19T20:07:32Z</time>
      </trkpt>
      <trkpt lat="59.479829635863" lon="17.877794072568">
        <ele>15</ele>
        <time>2018-02-19T20:07:49Z</time>
      </trkpt>
      <trkpt lat="59.479781020843" lon="17.877441529854">
        <ele>15.6</ele>
        <time>2018-02-19T20:07:57Z</time>
      </trkpt>
      <trkpt lat="59.479725029751" lon="17.877188564112">
        <ele>16.2</ele>
        <time>2018-02-19T20:08:03Z</time>
      </trkpt>
      <trkpt lat="59.479572479171" lon="17.876747927629">
        <ele>16.6</ele>
        <time>2018-02-19T20:08:12Z</time>
      </trkpt>
      <trkpt lat="59.479526043445" lon="17.876532596618">
        <ele>18.6</ele>
        <time>2018-02-19T20:08:16Z</time>
      </trkpt>
      <trkpt lat="59.47943007069" lon="17.876138731137">
        <ele>19.8</ele>
        <time>2018-02-19T20:08:25Z</time>
      </trkpt>
      <trkpt lat="59.479043078367" lon="17.875554931802">
        <ele>19.6</ele>
        <time>2018-02-19T20:08:40Z</time>
      </trkpt>
      <trkpt lat="59.47859523345" lon="17.875278748197">
        <ele>20.6</ele>
        <time>2018-02-19T20:08:56Z</time>
      </trkpt>
      <trkpt lat="59.478547540439" lon="17.875242286932">
        <ele>21</ele>
        <time>2018-02-19T20:08:58Z</time>
      </trkpt>
      <trkpt lat="59.478294574697" lon="17.875121671391">
        <ele>22</ele>
        <time>2018-02-19T20:09:08Z</time>
      </trkpt>
      <trkpt lat="59.477840275717" lon="17.87516115014">
        <ele>22.6</ele>
        <time>2018-02-19T20:09:26Z</time>
      </trkpt>
      <trkpt lat="59.477744135324" lon="17.875181434338">
        <ele>23</ele>
        <time>2018-02-19T20:09:30Z</time>
      </trkpt>
      <trkpt lat="59.477292434733" lon="17.875282100957">
        <ele>23</ele>
        <time>2018-02-19T20:09:46Z</time>
      </trkpt>
      <trkpt lat="59.476858755227" lon="17.875530205197">
        <ele>23.4</ele>
        <time>2018-02-19T20:10:00Z</time>
      </trkpt>
      <trkpt lat="59.476565724003" lon="17.876221292852">
        <ele>23.2</ele>
        <time>2018-02-19T20:10:14Z</time>
      </trkpt>
      <trkpt lat="59.476199099697" lon="17.876754297873">
        <ele>23</ele>
        <time>2018-02-19T20:10:30Z</time>
      </trkpt>
      <trkpt lat="59.475843539499" lon="17.877007850348">
        <ele>22.8</ele>
        <time>2018-02-19T20:10:42Z</time>
      </trkpt>
      <trkpt lat="59.475724265062" lon="17.876211988943">
        <ele>23.8</ele>
        <time>2018-02-19T20:10:57Z</time>
      </trkpt>
      <trkpt lat="59.475707333624" lon="17.876007973497">
        <ele>24.2</ele>
        <time>2018-02-19T20:11:00Z</time>
      </trkpt>
      <trkpt lat="59.475557465252" lon="17.875114295319">
        <ele>24.6</ele>
        <time>2018-02-19T20:11:16Z</time>
      </trkpt>
      <trkpt lat="59.475622760253" lon="17.874482886792">
        <ele>25</ele>
        <time>2018-02-19T20:11:29Z</time>
      </trkpt>
      <trkpt lat="59.475675901499" lon="17.874466793544">
        <ele>25.2</ele>
        <time>2018-02-19T20:11:31Z</time>
      </trkpt>
      <trkpt lat="59.475920485341" lon="17.874537704418">
        <ele>24</ele>
        <time>2018-02-19T20:11:37Z</time>
      </trkpt>
      <trkpt lat="59.476384674963" lon="17.874590426569">
        <ele>24</ele>
        <time>2018-02-19T20:11:48Z</time>
      </trkpt>
      <trkpt lat="59.476484000478" lon="17.874564945593">
        <ele>24</ele>
        <time>2018-02-19T20:11:51Z</time>
      </trkpt>
      <trkpt lat="59.476888846248" lon="17.87458698999">
        <ele>23</ele>
        <time>2018-02-19T20:12:02Z</time>
      </trkpt>
      <trkpt lat="59.477174333762" lon="17.874703330762">
        <ele>24</ele>
        <time>2018-02-19T20:12:11Z</time>
      </trkpt>
      <trkpt lat="59.477365524901" lon="17.874762087881">
        <ele>22.8</ele>
        <time>2018-02-19T20:12:17Z</time>
      </trkpt>
      <trkpt lat="59.477852261834" lon="17.87490214943">
        <ele>22.8</ele>
        <time>2018-02-19T20:12:30Z</time>
      </trkpt>
      <trkpt lat="59.47804873357" lon="17.874938443057">
        <ele>21.8</ele>
        <time>2018-02-19T20:12:35Z</time>
      </trkpt>
      <trkpt lat="59.478299184742" lon="17.874970378096">
        <ele>20.8</ele>
        <time>2018-02-19T20:12:41Z</time>
      </trkpt>
      <trkpt lat="59.478659103528" lon="17.874930061157">
        <ele>20.8</ele>
        <time>2018-02-19T20:12:49Z</time>
      </trkpt>
      <trkpt lat="59.479127819376" lon="17.875057130761">
        <ele>20.8</ele>
        <time>2018-02-19T20:13:01Z</time>
      </trkpt>
      <trkpt lat="59.479385143706" lon="17.87519970688">
        <ele>19.6</ele>
        <time>2018-02-19T20:13:08Z</time>
      </trkpt>
      <trkpt lat="59.479431495613" lon="17.875244382407">
        <ele>18.8</ele>
        <time>2018-02-19T20:13:09Z</time>
      </trkpt>
      <trkpt lat="59.479476338778" lon="17.875293165065">
        <ele>18.2</ele>
        <time>2018-02-19T20:13:10Z</time>
      </trkpt>
      <trkpt lat="59.479582956546" lon="17.875456779753">
        <ele>17.4</ele>
        <time>2018-02-19T20:13:12Z</time>
      </trkpt>
      <trkpt lat="59.479656298171" lon="17.875699771034">
        <ele>17.4</ele>
        <time>2018-02-19T20:13:15Z</time>
      </trkpt>
      <trkpt lat="59.48009307898" lon="17.876081566579">
        <ele>17.4</ele>
        <time>2018-02-19T20:13:30Z</time>
      </trkpt>
      <trkpt lat="59.480148818615" lon="17.876248617846">
        <ele>17</ele>
        <time>2018-02-19T20:13:33Z</time>
      </trkpt>
      <trkpt lat="59.480235990375" lon="17.876492698774">
        <ele>16</ele>
        <time>2018-02-19T20:13:37Z</time>
      </trkpt>
      <trkpt lat="59.480440341097" lon="17.877313370603">
        <ele>16</ele>
        <time>2018-02-19T20:13:50Z</time>
      </trkpt>
      <trkpt lat="59.480567913615" lon="17.877632720993">
        <ele>14.8</ele>
        <time>2018-02-19T20:13:56Z</time>
      </trkpt>
      <trkpt lat="59.481025732993" lon="17.877799688441">
        <ele>14.4</ele>
        <time>2018-02-19T20:14:09Z</time>
      </trkpt>
      <trkpt lat="59.481467123847" lon="17.87793136809">
        <ele>13.6</ele>
        <time>2018-02-19T20:14:22Z</time>
      </trkpt>
      <trkpt lat="59.481924859406" lon="17.877714612156">
        <ele>14</ele>
        <time>2018-02-19T20:14:37Z</time>
      </trkpt>
      <trkpt lat="59.482360466749" lon="17.877490563969">
        <ele>13.2</ele>
        <time>2018-02-19T20:14:51Z</time>
      </trkpt>
      <trkpt lat="59.482768665279" lon="17.877084209457">
        <ele>13.6</ele>
        <time>2018-02-19T20:15:04Z</time>
      </trkpt>
      <trkpt lat="59.48296304154" lon="17.876875751604">
        <ele>12.6</ele>
        <time>2018-02-19T20:15:10Z</time>
      </trkpt>
      <trkpt lat="59.483410215905" lon="17.876555311567">
        <ele>12</ele>
        <time>2018-02-19T20:15:23Z</time>
      </trkpt>
      <trkpt lat="59.483475678544" lon="17.876513234429">
        <ele>11.4</ele>
        <time>2018-02-19T20:15:25Z</time>
      </trkpt>
      <trkpt lat="59.483610710953" lon="17.876451459826">
        <ele>10</ele>
        <time>2018-02-19T20:15:29Z</time>
      </trkpt>
      <trkpt lat="59.483780109152" lon="17.876362695505">
        <ele>9</ele>
        <time>2018-02-19T20:15:34Z</time>
      </trkpt>
      <trkpt lat="59.484250333742" lon="17.876349619741">
        <ele>8.2</ele>
        <time>2018-02-19T20:15:47Z</time>
      </trkpt>
      <trkpt lat="59.48426223604" lon="17.876235458263">
        <ele>8</ele>
        <time>2018-02-19T20:16:14Z</time>
      </trkpt>
      <trkpt lat="59.484245053145" lon="17.876237469919">
        <ele>8.2</ele>
        <time>2018-02-19T20:16:17Z</time>
      </trkpt>
      <trkpt lat="59.484163664896" lon="17.876221628128">
        <ele>8.4</ele>
        <time>2018-02-19T20:16:21Z</time>
      </trkpt>
      <trkpt lat="59.483763848266" lon="17.876268650587">
        <ele>9</ele>
        <time>2018-02-19T20:16:35Z</time>
      </trkpt>
      <trkpt lat="59.483309884562" lon="17.876545253287">
        <ele>9.4</ele>
        <time>2018-02-19T20:16:52Z</time>
      </trkpt>
      <trkpt lat="59.483120369803" lon="17.876728397802">
        <ele>10</ele>
        <time>2018-02-19T20:17:00Z</time>
      </trkpt>
      <trkpt lat="59.482681912614" lon="17.877082197801">
        <ele>10.4</ele>
        <time>2018-02-19T20:17:16Z</time>
      </trkpt>
      <trkpt lat="59.482257704655" lon="17.877424682235">
        <ele>10.8</ele>
        <time>2018-02-19T20:17:32Z</time>
      </trkpt>
      <trkpt lat="59.481933911858" lon="17.877587458733">
        <ele>11.2</ele>
        <time>2018-02-19T20:17:43Z</time>
      </trkpt>
      <trkpt lat="59.481482295086" lon="17.877766747574">
        <ele>11.8</ele>
        <time>2018-02-19T20:17:57Z</time>
      </trkpt>
      <trkpt lat="59.481030762133" lon="17.877708744826">
        <ele>11.4</ele>
        <time>2018-02-19T20:18:11Z</time>
      </trkpt>
      <trkpt lat="59.480710405915" lon="17.877596762642">
        <ele>12.2</ele>
        <time>2018-02-19T20:18:22Z</time>
      </trkpt>
      <trkpt lat="59.480396587579" lon="17.877096949945">
        <ele>13</ele>
        <time>2018-02-19T20:18:38Z</time>
      </trkpt>
      <trkpt lat="59.4803596234" lon="17.876962252812">
        <ele>13.4</ele>
        <time>2018-02-19T20:18:41Z</time>
      </trkpt>
      <trkpt lat="59.480123337639" lon="17.876188603442">
        <ele>13.8</ele>
        <time>2018-02-19T20:18:57Z</time>
      </trkpt>
      <trkpt lat="59.479926614446" lon="17.875962124504">
        <ele>15.8</ele>
        <time>2018-02-19T20:19:06Z</time>
      </trkpt>
      <trkpt lat="59.479497712623" lon="17.875663645045">
        <ele>16.6</ele>
        <time>2018-02-19T20:19:25Z</time>
      </trkpt>
      <trkpt lat="59.479436440934" lon="17.875566331186">
        <ele>16.8</ele>
        <time>2018-02-19T20:19:28Z</time>
      </trkpt>
      <trkpt lat="59.479136955647" lon="17.875220410173">
        <ele>18</ele>
        <time>2018-02-19T20:19:42Z</time>
      </trkpt>
      <trkpt lat="59.479038719779" lon="17.87509996227">
        <ele>19.2</ele>
        <time>2018-02-19T20:19:49Z</time>
      </trkpt>
      <trkpt lat="59.478593137975" lon="17.874869879115">
        <ele>18.6</ele>
        <time>2018-02-19T20:20:03Z</time>
      </trkpt>
      <trkpt lat="59.478261298554" lon="17.874887648743">
        <ele>20.2</ele>
        <time>2018-02-19T20:20:15Z</time>
      </trkpt>
      <trkpt lat="59.477793839991" lon="17.874856384256">
        <ele>21</ele>
        <time>2018-02-19T20:20:33Z</time>
      </trkpt>
      <trkpt lat="59.477703650747" lon="17.874878428653">
        <ele>21.2</ele>
        <time>2018-02-19T20:20:36Z</time>
      </trkpt>
      <trkpt lat="59.477248513577" lon="17.874777342939">
        <ele>22</ele>
        <time>2018-02-19T20:20:53Z</time>
      </trkpt>
      <trkpt lat="59.477066961623" lon="17.874690338817">
        <ele>22.2</ele>
        <time>2018-02-19T20:20:59Z</time>
      </trkpt>
      <trkpt lat="59.476610650987" lon="17.874534351658">
        <ele>21.8</ele>
        <time>2018-02-19T20:21:14Z</time>
      </trkpt>
      <trkpt lat="59.476140258759" lon="17.874530663622">
        <ele>24.8</ele>
        <time>2018-02-19T20:21:30Z</time>
      </trkpt>
      <trkpt lat="59.475887795931" lon="17.874494369995">
        <ele>25.8</ele>
        <time>2018-02-19T20:21:39Z</time>
      </trkpt>
      <trkpt lat="59.475686462693" lon="17.875177411026">
        <ele>26</ele>
        <time>2018-02-19T20:21:55Z</time>
      </trkpt>
      <trkpt lat="59.475764498182" lon="17.875580328959">
        <ele>24.8</ele>
        <time>2018-02-19T20:22:01Z</time>
      </trkpt>
      <trkpt lat="59.475830212278" lon="17.875949970749">
        <ele>24.8</ele>
        <time>2018-02-19T20:22:06Z</time>
      </trkpt>
      <trkpt lat="59.475843371861" lon="17.876183993397">
        <ele>25</ele>
        <time>2018-02-19T20:22:09Z</time>
      </trkpt>
      <trkpt lat="59.475819064351" lon="17.87707222334">
        <ele>24</ele>
        <time>2018-02-19T20:22:21Z</time>
      </trkpt>
      <trkpt lat="59.47582669188" lon="17.877103152551">
        <ele>23.8</ele>
        <time>2018-02-19T20:22:22Z</time>
      </trkpt>
      <trkpt lat="59.47585435215" lon="17.877131818649">
        <ele>23.8</ele>
        <time>2018-02-19T20:22:23Z</time>
      </trkpt>
      <trkpt lat="59.476245954518" lon="17.876659666222">
        <ele>23</ele>
        <time>2018-02-19T20:22:39Z</time>
      </trkpt>
      <trkpt lat="59.476452568353" lon="17.87623822429">
        <ele>23.8</ele>
        <time>2018-02-19T20:22:48Z</time>
      </trkpt>
      <trkpt lat="59.476721459705" lon="17.875523164401">
        <ele>23.6</ele>
        <time>2018-02-19T20:23:01Z</time>
      </trkpt>
      <trkpt lat="59.477156647953" lon="17.875305654096">
        <ele>23.2</ele>
        <time>2018-02-19T20:23:16Z</time>
      </trkpt>
      <trkpt lat="59.477604157594" lon="17.875170956963">
        <ele>23</ele>
        <time>2018-02-19T20:23:30Z</time>
      </trkpt>
      <trkpt lat="59.47806968832" lon="17.875138686648">
        <ele>23.4</ele>
        <time>2018-02-19T20:23:42Z</time>
      </trkpt>
      <trkpt lat="59.478239505614" lon="17.875145811263">
        <ele>22.6</ele>
        <time>2018-02-19T20:23:46Z</time>
      </trkpt>
      <trkpt lat="59.478584923713" lon="17.875203143459">
        <ele>21.6</ele>
        <time>2018-02-19T20:23:54Z</time>
      </trkpt>
      <trkpt lat="59.478668239799" lon="17.875230133177">
        <ele>21.2</ele>
        <time>2018-02-19T20:23:56Z</time>
      </trkpt>
      <trkpt lat="59.478993541338" lon="17.875421659592">
        <ele>20.6</ele>
        <time>2018-02-19T20:24:04Z</time>
      </trkpt>
      <trkpt lat="59.47903025406" lon="17.875449319862">
        <ele>20.4</ele>
        <time>2018-02-19T20:24:05Z</time>
      </trkpt>
      <trkpt lat="59.479064452212" lon="17.875472621544">
        <ele>20.2</ele>
        <time>2018-02-19T20:24:06Z</time>
      </trkpt>
      <trkpt lat="59.479144415538" lon="17.875520482193">
        <ele>20.2</ele>
        <time>2018-02-19T20:24:08Z</time>
      </trkpt>
      <trkpt lat="59.479217338068" lon="17.875557194915">
        <ele>20.2</ele>
        <time>2018-02-19T20:24:10Z</time>
      </trkpt>
      <trkpt lat="59.479376258892" lon="17.875761042723">
        <ele>19.4</ele>
        <time>2018-02-19T20:24:15Z</time>
      </trkpt>
      <trkpt lat="59.479634253774" lon="17.87651901794">
        <ele>19</ele>
        <time>2018-02-19T20:24:28Z</time>
      </trkpt>
      <trkpt lat="59.479845226197" lon="17.877291912939">
        <ele>18.4</ele>
        <time>2018-02-19T20:24:40Z</time>
      </trkpt>
      <trkpt lat="59.479868360241" lon="17.877375564301">
        <ele>18.2</ele>
        <time>2018-02-19T20:24:41Z</time>
      </trkpt>
      <trkpt lat="59.479931559767" lon="17.877674630493">
        <ele>17.8</ele>
        <time>2018-02-19T20:24:45Z</time>
      </trkpt>
      <trkpt lat="59.479924267514" lon="17.877864145252">
        <ele>18</ele>
        <time>2018-02-19T20:24:47Z</time>
      </trkpt>
      <trkpt lat="59.479844052731" lon="17.878363622673">
        <ele>17</ele>
        <time>2018-02-19T20:24:53Z</time>
      </trkpt>
      <trkpt lat="59.47982988732" lon="17.87844517856">
        <ele>16.6</ele>
        <time>2018-02-19T20:24:54Z</time>
      </trkpt>
      <trkpt lat="59.479799461023" lon="17.878778442904">
        <ele>16.6</ele>
        <time>2018-02-19T20:24:58Z</time>
      </trkpt>
      <trkpt lat="59.479621597105" lon="17.879097122742">
        <ele>16</ele>
        <time>2018-02-19T20:25:04Z</time>
      </trkpt>
      <trkpt lat="59.479559403407" lon="17.8792213425">
        <ele>16</ele>
        <time>2018-02-19T20:25:07Z</time>
      </trkpt>
      <trkpt lat="59.479557559389" lon="17.879250762969">
        <ele>16</ele>
        <time>2018-02-19T20:25:09Z</time>
      </trkpt>
      <trkpt lat="59.479618160526" lon="17.879189407461">
        <ele>16.2</ele>
        <time>2018-02-19T20:25:13Z</time>
      </trkpt>
      <trkpt lat="59.479784708879" lon="17.87855665783">
        <ele>15.8</ele>
        <time>2018-02-19T20:25:26Z</time>
      </trkpt>
      <trkpt lat="59.47972343719" lon="17.877723413151">
        <ele>17.2</ele>
        <time>2018-02-19T20:25:41Z</time>
      </trkpt>
      <trkpt lat="59.479726203217" lon="17.877286129428">
        <ele>18.2</ele>
        <time>2018-02-19T20:25:51Z</time>
      </trkpt>
      <trkpt lat="59.479567617669" lon="17.876467217798">
        <ele>19</ele>
        <time>2018-02-19T20:26:08Z</time>
      </trkpt>
      <trkpt lat="59.479481535556" lon="17.876158260964">
        <ele>19.4</ele>
        <time>2018-02-19T20:26:14Z</time>
      </trkpt>
      <trkpt lat="59.47912077858" lon="17.875545711712">
        <ele>19</ele>
        <time>2018-02-19T20:26:30Z</time>
      </trkpt>
      <trkpt lat="59.478736971379" lon="17.875370110907">
        <ele>20.4</ele>
        <time>2018-02-19T20:26:45Z</time>
      </trkpt>
      <trkpt lat="59.478395325135" lon="17.875182607804">
        <ele>21.4</ele>
        <time>2018-02-19T20:26:57Z</time>
      </trkpt>
      <trkpt lat="59.477999447998" lon="17.875177830121">
        <ele>22.4</ele>
        <time>2018-02-19T20:27:14Z</time>
      </trkpt>
      <trkpt lat="59.477814459465" lon="17.875218230879">
        <ele>21</ele>
        <time>2018-02-19T20:27:22Z</time>
      </trkpt>
      <trkpt lat="59.477335936794" lon="17.875298780938">
        <ele>21.8</ele>
        <time>2018-02-19T20:27:39Z</time>
      </trkpt>
      <trkpt lat="59.477335936794" lon="17.875298780938">
        <ele>22</ele>
        <time>2018-02-19T20:27:40Z</time>
      </trkpt>
      <trkpt lat="59.476871663353" lon="17.875462814721">
        <ele>21.2</ele>
        <time>2018-02-19T20:27:54Z</time>
      </trkpt>
      <trkpt lat="59.476616685955" lon="17.876017612682">
        <ele>23.2</ele>
        <time>2018-02-19T20:28:06Z</time>
      </trkpt>
      <trkpt lat="59.476274369159" lon="17.876645919906">
        <ele>23.8</ele>
        <time>2018-02-19T20:28:22Z</time>
      </trkpt>
      <trkpt lat="59.475867595552" lon="17.877005671054">
        <ele>23.4</ele>
        <time>2018-02-19T20:28:36Z</time>
      </trkpt>
      <trkpt lat="59.47580489894" lon="17.876971137626">
        <ele>23.8</ele>
        <time>2018-02-19T20:28:38Z</time>
      </trkpt>
      <trkpt lat="59.475781345801" lon="17.876936520379">
        <ele>24.8</ele>
        <time>2018-02-19T20:28:39Z</time>
      </trkpt>
      <trkpt lat="59.475756116282" lon="17.876890671386">
        <ele>25</ele>
        <time>2018-02-19T20:28:40Z</time>
      </trkpt>
      <trkpt lat="59.47574538745" lon="17.876838871244">
        <ele>25.8</ele>
        <time>2018-02-19T20:28:41Z</time>
      </trkpt>
      <trkpt lat="59.475670369445" lon="17.875773196478">
        <ele>26.6</ele>
        <time>2018-02-19T20:29:01Z</time>
      </trkpt>
      <trkpt lat="59.475643463546" lon="17.875588207945">
        <ele>26.8</ele>
        <time>2018-02-19T20:29:05Z</time>
      </trkpt>
      <trkpt lat="59.475632902352" lon="17.875530289016">
        <ele>27</ele>
        <time>2018-02-19T20:29:06Z</time>
      </trkpt>
      <trkpt lat="59.475553525759" lon="17.874935509392">
        <ele>27.2</ele>
        <time>2018-02-19T20:29:18Z</time>
      </trkpt>
      <trkpt lat="59.475616809104" lon="17.874599479021">
        <ele>27.4</ele>
        <time>2018-02-19T20:29:25Z</time>
      </trkpt>
      <trkpt lat="59.476118801095" lon="17.874606687455">
        <ele>26.6</ele>
        <time>2018-02-19T20:29:39Z</time>
      </trkpt>
      <trkpt lat="59.476577123387" lon="17.874609453482">
        <ele>25.8</ele>
        <time>2018-02-19T20:29:53Z</time>
      </trkpt>
      <trkpt lat="59.476617440326" lon="17.874603418514">
        <ele>25.6</ele>
        <time>2018-02-19T20:29:54Z</time>
      </trkpt>
      <trkpt lat="59.476994458188" lon="17.874733086507">
        <ele>24.2</ele>
        <time>2018-02-19T20:30:06Z</time>
      </trkpt>
      <trkpt lat="59.477186319879" lon="17.874773990179">
        <ele>22.8</ele>
        <time>2018-02-19T20:30:11Z</time>
      </trkpt>
      <trkpt lat="59.477432328644" lon="17.874808523607">
        <ele>24</ele>
        <time>2018-02-19T20:30:17Z</time>
      </trkpt>
      <trkpt lat="59.477900709216" lon="17.874889744218">
        <ele>23.4</ele>
        <time>2018-02-19T20:30:29Z</time>
      </trkpt>
      <trkpt lat="59.478123667756" lon="17.874891672055">
        <ele>22.8</ele>
        <time>2018-02-19T20:30:36Z</time>
      </trkpt>
      <trkpt lat="59.478291305756" lon="17.874906843294">
        <ele>21.8</ele>
        <time>2018-02-19T20:30:39Z</time>
      </trkpt>
      <trkpt lat="59.478757507034" lon="17.875015472718">
        <ele>21.8</ele>
        <time>2018-02-19T20:30:52Z</time>
      </trkpt>
      <trkpt lat="59.479105020608" lon="17.875245388235">
        <ele>20.6</ele>
        <time>2018-02-19T20:31:05Z</time>
      </trkpt>
      <trkpt lat="59.479200993363" lon="17.875341193352">
        <ele>20.2</ele>
        <time>2018-02-19T20:31:06Z</time>
      </trkpt>
      <trkpt lat="59.479244327786" lon="17.875399531376">
        <ele>19.2</ele>
        <time>2018-02-19T20:31:08Z</time>
      </trkpt>
      <trkpt lat="59.479324877845" lon="17.875532803586">
        <ele>19</ele>
        <time>2018-02-19T20:31:09Z</time>
      </trkpt>
      <trkpt lat="59.479471393457" lon="17.875803874232">
        <ele>18.8</ele>
        <time>2018-02-19T20:31:13Z</time>
      </trkpt>
      <trkpt lat="59.479681862966" lon="17.875954329337">
        <ele>19</ele>
        <time>2018-02-19T20:31:19Z</time>
      </trkpt>
      <trkpt lat="59.479981767348" lon="17.876104700623">
        <ele>18.2</ele>
        <time>2018-02-19T20:31:27Z</time>
      </trkpt>
      <trkpt lat="59.480333052777" lon="17.876770726397">
        <ele>17.6</ele>
        <time>2018-02-19T20:31:39Z</time>
      </trkpt>
      <trkpt lat="59.48034872693" lon="17.876830154068">
        <ele>17</ele>
        <time>2018-02-19T20:31:40Z</time>
      </trkpt>
      <trkpt lat="59.480598842826" lon="17.877637247219">
        <ele>17</ele>
        <time>2018-02-19T20:31:55Z</time>
      </trkpt>
      <trkpt lat="59.480813000371" lon="17.877715869441">
        <ele>15.8</ele>
        <time>2018-02-19T20:32:02Z</time>
      </trkpt>
      <trkpt lat="59.481261180564" lon="17.877916532127">
        <ele>15.4</ele>
        <time>2018-02-19T20:32:16Z</time>
      </trkpt>
      <trkpt lat="59.481727381842" lon="17.877778482234">
        <ele>15</ele>
        <time>2018-02-19T20:32:32Z</time>
      </trkpt>
      <trkpt lat="59.482094592881" lon="17.877626602206">
        <ele>14.8</ele>
        <time>2018-02-19T20:32:45Z</time>
      </trkpt>
      <trkpt lat="59.482512598234" lon="17.877304904884">
        <ele>14.4</ele>
        <time>2018-02-19T20:32:59Z</time>
      </trkpt>
      <trkpt lat="59.482660874045" lon="17.877158305453">
        <ele>13.2</ele>
        <time>2018-02-19T20:33:04Z</time>
      </trkpt>
      <trkpt lat="59.48275265585" lon="17.877056130092">
        <ele>15</ele>
        <time>2018-02-19T20:33:07Z</time>
      </trkpt>
      <trkpt lat="59.48314157601" lon="17.876764439972">
        <ele>14</ele>
        <time>2018-02-19T20:33:18Z</time>
      </trkpt>
      <trkpt lat="59.483332934787" lon="17.876594203583">
        <ele>13.4</ele>
        <time>2018-02-19T20:33:24Z</time>
      </trkpt>
      <trkpt lat="59.48344248622" lon="17.876505942176">
        <ele>13</ele>
        <time>2018-02-19T20:33:26Z</time>
      </trkpt>
      <trkpt lat="59.483884547626" lon="17.876272003347">
        <ele>12.8</ele>
        <time>2018-02-19T20:33:40Z</time>
      </trkpt>
      <trkpt lat="59.484200545256" lon="17.876296813771">
        <ele>12</ele>
        <time>2018-02-19T20:33:50Z</time>
      </trkpt>
      <trkpt lat="59.48426810337" lon="17.876245851819">
        <ele>11.8</ele>
        <time>2018-02-19T20:34:20Z</time>
      </trkpt>
      <trkpt lat="59.484253267407" lon="17.876236128815">
        <ele>11.8</ele>
        <time>2018-02-19T20:34:23Z</time>
      </trkpt>
      <trkpt lat="59.483753622348" lon="17.876266806569">
        <ele>12.6</ele>
        <time>2018-02-19T20:34:42Z</time>
      </trkpt>
      <trkpt lat="59.483553797852" lon="17.876420614434">
        <ele>13</ele>
        <time>2018-02-19T20:34:49Z</time>
      </trkpt>
      <trkpt lat="59.483121627088" lon="17.876701156627">
        <ele>13.6</ele>
        <time>2018-02-19T20:35:04Z</time>
      </trkpt>
      <trkpt lat="59.483045267979" lon="17.876778605383">
        <ele>14</ele>
        <time>2018-02-19T20:35:07Z</time>
      </trkpt>
      <trkpt lat="59.482633046137" lon="17.877140368187">
        <ele>14.6</ele>
        <time>2018-02-19T20:35:24Z</time>
      </trkpt>
      <trkpt lat="59.482200875373" lon="17.877483690811">
        <ele>15</ele>
        <time>2018-02-19T20:35:40Z</time>
      </trkpt>
      <trkpt lat="59.482121414961" lon="17.877530294175">
        <ele>15.2</ele>
        <time>2018-02-19T20:35:42Z</time>
      </trkpt>
      <trkpt lat="59.481708438748" lon="17.877721569133">
        <ele>14.8</ele>
        <time>2018-02-19T20:35:57Z</time>
      </trkpt>
      <trkpt lat="59.481205189472" lon="17.87780815416">
        <ele>15.8</ele>
        <time>2018-02-19T20:36:13Z</time>
      </trkpt>
      <trkpt lat="59.480764301532" lon="17.877608832578">
        <ele>15.4</ele>
        <time>2018-02-19T20:36:28Z</time>
      </trkpt>
      <trkpt lat="59.480512760713" lon="17.877500454611">
        <ele>14.8</ele>
        <time>2018-02-19T20:36:38Z</time>
      </trkpt>
      <trkpt lat="59.480264656473" lon="17.87668330318">
        <ele>15.2</ele>
        <time>2018-02-19T20:36:56Z</time>
      </trkpt>
      <trkpt lat="59.480083439795" lon="17.876158009507">
        <ele>16.2</ele>
        <time>2018-02-19T20:37:08Z</time>
      </trkpt>
      <trkpt lat="59.480060557208" lon="17.876132863807">
        <ele>16.2</ele>
        <time>2018-02-19T20:37:10Z</time>
      </trkpt>
      <trkpt lat="59.479631320109" lon="17.875829271389">
        <ele>16.8</ele>
        <time>2018-02-19T20:37:28Z</time>
      </trkpt>
      <trkpt lat="59.479260337215" lon="17.875341947723">
        <ele>17</ele>
        <time>2018-02-19T20:37:45Z</time>
      </trkpt>
      <trkpt lat="59.479174255102" lon="17.875219991078">
        <ele>17.2</ele>
        <time>2018-02-19T20:37:51Z</time>
      </trkpt>
      <trkpt lat="59.479113905422" lon="17.875154193163">
        <ele>18.2</ele>
        <time>2018-02-19T20:37:56Z</time>
      </trkpt>
      <trkpt lat="59.478682237572" lon="17.874888235476">
        <ele>18.8</ele>
        <time>2018-02-19T20:38:12Z</time>
      </trkpt>
      <trkpt lat="59.478195668277" lon="17.874940370894">
        <ele>19.2</ele>
        <time>2018-02-19T20:38:29Z</time>
      </trkpt>
      <trkpt lat="59.478048985027" lon="17.874891085322">
        <ele>19.4</ele>
        <time>2018-02-19T20:38:35Z</time>
      </trkpt>
      <trkpt lat="59.477838515518" lon="17.874868118916">
        <ele>21</ele>
        <time>2018-02-19T20:38:44Z</time>
      </trkpt>
      <trkpt lat="59.477757294907" lon="17.874870382029">
        <ele>22.4</ele>
        <time>2018-02-19T20:38:47Z</time>
      </trkpt>
      <trkpt lat="59.477309952904" lon="17.874787568857">
        <ele>22.8</ele>
        <time>2018-02-19T20:39:04Z</time>
      </trkpt>
      <trkpt lat="59.477121946887" lon="17.874732332136">
        <ele>23.4</ele>
        <time>2018-02-19T20:39:11Z</time>
      </trkpt>
      <trkpt lat="59.476664546604" lon="17.874569890914">
        <ele>23.8</ele>
        <time>2018-02-19T20:39:25Z</time>
      </trkpt>
      <trkpt lat="59.476196920403" lon="17.874626552558">
        <ele>23.8</ele>
        <time>2018-02-19T20:39:42Z</time>
      </trkpt>
      <trkpt lat="59.475976224976" lon="17.874534686934">
        <ele>24.4</ele>
        <time>2018-02-19T20:39:51Z</time>
      </trkpt>
      <trkpt lat="59.475675063309" lon="17.875010527397">
        <ele>24.2</ele>
        <time>2018-02-19T20:40:07Z</time>
      </trkpt>
      <trkpt lat="59.475777657765" lon="17.875890794535">
        <ele>23.6</ele>
        <time>2018-02-19T20:40:20Z</time>
      </trkpt>
      <trkpt lat="59.475812107374" lon="17.876129091952">
        <ele>23.6</ele>
        <time>2018-02-19T20:40:23Z</time>
      </trkpt>
      <trkpt lat="59.475791404081" lon="17.876525807279">
        <ele>23.2</ele>
        <time>2018-02-19T20:40:28Z</time>
      </trkpt>
      <trkpt lat="59.475787464588" lon="17.877085718199">
        <ele>22.4</ele>
        <time>2018-02-19T20:40:35Z</time>
      </trkpt>
      <trkpt lat="59.475863739878" lon="17.877133830305">
        <ele>22.8</ele>
        <time>2018-02-19T20:40:40Z</time>
      </trkpt>
      <trkpt lat="59.476277051367" lon="17.876647428648">
        <ele>22.4</ele>
        <time>2018-02-19T20:40:55Z</time>
      </trkpt>
      <trkpt lat="59.476305214551" lon="17.876607949899">
        <ele>22.2</ele>
        <time>2018-02-19T20:40:56Z</time>
      </trkpt>
      <trkpt lat="59.476634623221" lon="17.875924322135">
        <ele>22.4</ele>
        <time>2018-02-19T20:41:09Z</time>
      </trkpt>
      <trkpt lat="59.476724141913" lon="17.875646126874">
        <ele>21</ele>
        <time>2018-02-19T20:41:14Z</time>
      </trkpt>
      <trkpt lat="59.477150612985" lon="17.875321998801">
        <ele>21.8</ele>
        <time>2018-02-19T20:41:33Z</time>
      </trkpt>
      <trkpt lat="59.477596530065" lon="17.875215716309">
        <ele>20.6</ele>
        <time>2018-02-19T20:41:49Z</time>
      </trkpt>
      <trkpt lat="59.478066167922" lon="17.87515779738">
        <ele>21</ele>
        <time>2018-02-19T20:42:03Z</time>
      </trkpt>
      <trkpt lat="59.478235147026" lon="17.875142207046">
        <ele>19.8</ele>
        <time>2018-02-19T20:42:08Z</time>
      </trkpt>
      <trkpt lat="59.478694558965" lon="17.875429035664">
        <ele>19</ele>
        <time>2018-02-19T20:42:20Z</time>
      </trkpt>
      <trkpt lat="59.47876957697" lon="17.875473292096">
        <ele>18.6</ele>
        <time>2018-02-19T20:42:22Z</time>
      </trkpt>
      <trkpt lat="59.479155814922" lon="17.875780404912">
        <ele>17.6</ele>
        <time>2018-02-19T20:42:32Z</time>
      </trkpt>
      <trkpt lat="59.47947700933" lon="17.876424386289">
        <ele>17.8</ele>
        <time>2018-02-19T20:42:46Z</time>
      </trkpt>
      <trkpt lat="59.479589410609" lon="17.876799224857">
        <ele>16.4</ele>
        <time>2018-02-19T20:42:52Z</time>
      </trkpt>
      <trkpt lat="59.47980557981" lon="17.877537167333">
        <ele>14</ele>
        <time>2018-02-19T20:43:04Z</time>
      </trkpt>
      <trkpt lat="59.479840197057" lon="17.877696591071">
        <ele>13.8</ele>
        <time>2018-02-19T20:43:06Z</time>
      </trkpt>
      <trkpt lat="59.479842543989" lon="17.877782505546">
        <ele>12.4</ele>
        <time>2018-02-19T20:43:07Z</time>
      </trkpt>
      <trkpt lat="59.479840364695" lon="17.877861379225">
        <ele>11.8</ele>
        <time>2018-02-19T20:43:08Z</time>
      </trkpt>
      <trkpt lat="59.47977624316" lon="17.878474934305">
        <ele>11.6</ele>
        <time>2018-02-19T20:43:16Z</time>
      </trkpt>
      <trkpt lat="59.479775740246" lon="17.878658330277">
        <ele>11.4</ele>
        <time>2018-02-19T20:43:18Z</time>
      </trkpt>
      <trkpt lat="59.479762413025" lon="17.878847258303">
        <ele>11.2</ele>
        <time>2018-02-19T20:43:19Z</time>
      </trkpt>
      <trkpt lat="59.479727963416" lon="17.878987319852">
        <ele>11.4</ele>
        <time>2018-02-19T20:43:21Z</time>
      </trkpt>
      <trkpt lat="59.479544818901" lon="17.879222013052">
        <ele>11.2</ele>
        <time>2018-02-19T20:43:29Z</time>
      </trkpt>
      <trkpt lat="59.479595529396" lon="17.879193430773">
        <ele>11.4</ele>
        <time>2018-02-19T20:43:33Z</time>
      </trkpt>
      <trkpt lat="59.479763754129" lon="17.878518855461">
        <ele>11.8</ele>
        <time>2018-02-19T20:43:47Z</time>
      </trkpt>
      <trkpt lat="59.479760820464" lon="17.878471413907">
        <ele>11.8</ele>
        <time>2018-02-19T20:43:49Z</time>
      </trkpt>
      <trkpt lat="59.479798203738" lon="17.877728945205">
        <ele>12.4</ele>
        <time>2018-02-19T20:44:03Z</time>
      </trkpt>
      <trkpt lat="59.479735842402" lon="17.877285794152">
        <ele>13.6</ele>
        <time>2018-02-19T20:44:12Z</time>
      </trkpt>
      <trkpt lat="59.479537945743" lon="17.876384488445">
        <ele>13.8</ele>
        <time>2018-02-19T20:44:30Z</time>
      </trkpt>
      <trkpt lat="59.479463430652" lon="17.876031358998">
        <ele>14.6</ele>
        <time>2018-02-19T20:44:37Z</time>
      </trkpt>
      <trkpt lat="59.479088508265" lon="17.875563313702">
        <ele>14.6</ele>
        <time>2018-02-19T20:44:54Z</time>
      </trkpt>
      <trkpt lat="59.47873185842" lon="17.875424844714">
        <ele>15.8</ele>
        <time>2018-02-19T20:45:08Z</time>
      </trkpt>
      <trkpt lat="59.478355343472" lon="17.875262403492">
        <ele>16.8</ele>
        <time>2018-02-19T20:45:24Z</time>
      </trkpt>
      <trkpt lat="59.478026521535" lon="17.875226361322">
        <ele>17.8</ele>
        <time>2018-02-19T20:45:37Z</time>
      </trkpt>
      <trkpt lat="59.47755671604" lon="17.875284531708">
        <ele>18.4</ele>
        <time>2018-02-19T20:45:54Z</time>
      </trkpt>
      <trkpt lat="59.477084563613" lon="17.875440183591">
        <ele>18.6</ele>
        <time>2018-02-19T20:46:08Z</time>
      </trkpt>
      <trkpt lat="59.476688518838" lon="17.875811920856">
        <ele>18</ele>
        <time>2018-02-19T20:46:24Z</time>
      </trkpt>
      <trkpt lat="59.476608136417" lon="17.876178796619">
        <ele>19</ele>
        <time>2018-02-19T20:46:31Z</time>
      </trkpt>
      <trkpt lat="59.47624159593" lon="17.876707443052">
        <ele>18.2</ele>
        <time>2018-02-19T20:46:46Z</time>
      </trkpt>
      <trkpt lat="59.476020397589" lon="17.877014052954">
        <ele>18</ele>
        <time>2018-02-19T20:46:54Z</time>
      </trkpt>
      <trkpt lat="59.47584094111" lon="17.877050765676">
        <ele>18.6</ele>
        <time>2018-02-19T20:47:01Z</time>
      </trkpt>
      <trkpt lat="59.475750165133" lon="17.876357331089">
        <ele>19</ele>
        <time>2018-02-19T20:47:13Z</time>
      </trkpt>
      <trkpt lat="59.475689061082" lon="17.875592734171">
        <ele>20</ele>
        <time>2018-02-19T20:47:27Z</time>
      </trkpt>
      <trkpt lat="59.475607505195" lon="17.8747286441">
        <ele>20.8</ele>
        <time>2018-02-19T20:47:43Z</time>
      </trkpt>
      <trkpt lat="59.476019307942" lon="17.874567124887">
        <ele>20.6</ele>
        <time>2018-02-19T20:47:57Z</time>
      </trkpt>
      <trkpt lat="59.476494226396" lon="17.874622277789">
        <ele>19.6</ele>
        <time>2018-02-19T20:48:11Z</time>
      </trkpt>
      <trkpt lat="59.476701594602" lon="17.874615153174">
        <ele>19</ele>
        <time>2018-02-19T20:48:17Z</time>
      </trkpt>
      <trkpt lat="59.477173327934" lon="17.874808691245">
        <ele>18.4</ele>
        <time>2018-02-19T20:48:32Z</time>
      </trkpt>
      <trkpt lat="59.477628716561" lon="17.874904412543">
        <ele>18.2</ele>
        <time>2018-02-19T20:48:45Z</time>
      </trkpt>
      <trkpt lat="59.47774279422" lon="17.874922685085">
        <ele>17.8</ele>
        <time>2018-02-19T20:48:48Z</time>
      </trkpt>
      <trkpt lat="59.478181754323" lon="17.874909190226">
        <ele>16.6</ele>
        <time>2018-02-19T20:48:59Z</time>
      </trkpt>
      <trkpt lat="59.478387278511" lon="17.874902065611">
        <ele>16.4</ele>
        <time>2018-02-19T20:49:04Z</time>
      </trkpt>
      <trkpt lat="59.478854150341" lon="17.875038942038">
        <ele>16.2</ele>
        <time>2018-02-19T20:49:18Z</time>
      </trkpt>
      <trkpt lat="59.479146008099" lon="17.875220158716">
        <ele>15.8</ele>
        <time>2018-02-19T20:49:27Z</time>
      </trkpt>
      <trkpt lat="59.479186827952" lon="17.875267935546">
        <ele>15.4</ele>
        <time>2018-02-19T20:49:28Z</time>
      </trkpt>
      <trkpt lat="59.479261091586" lon="17.875380001549">
        <ele>14.2</ele>
        <time>2018-02-19T20:49:30Z</time>
      </trkpt>
      <trkpt lat="59.479334181754" lon="17.875516291243">
        <ele>13.4</ele>
        <time>2018-02-19T20:49:32Z</time>
      </trkpt>
      <trkpt lat="59.479425712102" lon="17.875711924789">
        <ele>13.2</ele>
        <time>2018-02-19T20:49:34Z</time>
      </trkpt>
      <trkpt lat="59.479530318214" lon="17.875854836184">
        <ele>13.2</ele>
        <time>2018-02-19T20:49:37Z</time>
      </trkpt>
      <trkpt lat="59.47961279611" lon="17.875905043765">
        <ele>13.4</ele>
        <time>2018-02-19T20:49:39Z</time>
      </trkpt>
      <trkpt lat="59.480068687651" lon="17.876182652293">
        <ele>12.2</ele>
        <time>2018-02-19T20:49:52Z</time>
      </trkpt>
      <trkpt lat="59.480100287414" lon="17.876244510715">
        <ele>12.2</ele>
        <time>2018-02-19T20:49:53Z</time>
      </trkpt>
      <trkpt lat="59.48034369779" lon="17.877043976337">
        <ele>11.2</ele>
        <time>2018-02-19T20:50:06Z</time>
      </trkpt>
      <trkpt lat="59.480421900917" lon="17.877351005334">
        <ele>11</ele>
        <time>2018-02-19T20:50:11Z</time>
      </trkpt>
      <trkpt lat="59.480666987673" lon="17.877657531417">
        <ele>10</ele>
        <time>2018-02-19T20:50:23Z</time>
      </trkpt>
      <trkpt lat="59.481106031595" lon="17.877867414193">
        <ele>9.8</ele>
        <time>2018-02-19T20:50:35Z</time>
      </trkpt>
      <trkpt lat="59.481595786012" lon="17.87777211199">
        <ele>9.8</ele>
        <time>2018-02-19T20:50:51Z</time>
      </trkpt>
      <trkpt lat="59.48206534005" lon="17.877571700761">
        <ele>9.6</ele>
        <time>2018-02-19T20:51:06Z</time>
      </trkpt>
      <trkpt lat="59.482356946351" lon="17.877432561221">
        <ele>9</ele>
        <time>2018-02-19T20:51:16Z</time>
      </trkpt>
      <trkpt lat="59.482764641967" lon="17.877061829784">
        <ele>8.8</ele>
        <time>2018-02-19T20:51:29Z</time>
      </trkpt>
      <trkpt lat="59.483175857981" lon="17.876684476646">
        <ele>7.8</ele>
        <time>2018-02-19T20:51:42Z</time>
      </trkpt>
      <trkpt lat="59.483598557198" lon="17.876354984157">
        <ele>7.4</ele>
        <time>2018-02-19T20:51:55Z</time>
      </trkpt>
      <trkpt lat="59.483805171033" lon="17.87625666447">
        <ele>6.8</ele>
        <time>2018-02-19T20:52:01Z</time>
      </trkpt>
      <trkpt lat="59.484060567526" lon="17.876260101049">
        <ele>6.6</ele>
        <time>2018-02-19T20:52:09Z</time>
      </trkpt>
    </trkseg>
  </trk>
</gpx>